Time;durP1;ratioP1;P1;durP2;ratioP2;P2;SDS_P1;SDS_P2;PMS_P1;PMS_P2;Temp;Humidity;BMP_temperature;BMP_pressure;BME280_temperature;BME280_humidity;BME280_pressure;Samples;Min_cycle;Max_cycle;Signal;HPM_P1;HPM_P2
2022/05/06 00:23:49;;;;;;;4.03;1.90;;;;;;;8.41;32.08;100518.66;5088115;27;1418922;-58
2022/05/06 00:26:16;;;;;;;6.15;2.78;;;;;;;8.40;32.07;100510.03;5113795;27;20039;-59
2022/05/06 00:32:53;;;;;;;3.90;2.22;;;;;;;8.46;31.98;100517.72;4956637;28;20055;-56
2022/05/06 00:35:18;;;;;;;6.05;2.45;;;;;;;8.45;32.15;100510.81;4954581;28;20051;-58
2022/05/06 00:37:44;;;;;;;7.95;2.45;;;;;;;8.46;31.97;100511.69;4948011;29;20051;-57
2022/05/06 00:40:13;;;;;;;6.13;2.30;;;;;;;8.43;32.23;100509.97;4953855;28;20047;-58
2022/05/06 00:42:39;;;;;;;5.78;2.35;;;;;;;8.52;32.08;100518.53;4948281;28;20051;-55
2022/05/06 00:45:05;;;;;;;4.38;2.60;;;;;;;8.48;32.15;100505.59;4948924;28;20519;-52
2022/05/06 00:47:33;;;;;;;4.63;2.53;;;;;;;8.58;32.30;100523.63;4948992;28;20145;-55
2022/05/06 00:50:01;;;;;;;5.57;2.30;;;;;;;8.56;31.92;100526.22;4932202;29;20079;-53
2022/05/06 00:52:29;;;;;;;4.63;2.58;;;;;;;8.57;32.18;100519.31;4949972;28;20130;-55
2022/05/06 00:54:55;;;;;;;9.90;2.75;;;;;;;8.54;32.15;100527.13;4942603;28;20530;-55
2022/05/06 00:57:21;;;;;;;10.98;2.65;;;;;;;8.33;32.32;100489.38;4950666;28;20055;-54
2022/05/06 01:02:31;;;;;;;5.68;2.35;;;;;;;8.51;32.08;100525.44;4962329;28;20138;-55
2022/05/06 01:04:57;;;;;;;5.35;2.63;;;;;;;8.49;32.13;100522.00;4941182;28;20118;-55
2022/05/06 01:07:23;;;;;;;7.50;2.70;;;;;;;8.52;32.37;100526.28;4959256;28;20103;-55
2022/05/06 01:09:51;;;;;;;3.92;2.30;;;;;;;8.54;32.06;100527.13;5037822;28;20047;-53
2022/05/06 01:12:17;;;;;;;3.88;2.38;;;;;;;8.45;32.07;100507.38;5125583;28;20396;-51
2022/05/06 01:14:43;;;;;;;5.30;2.25;;;;;;;8.53;32.22;100517.66;5104900;28;20047;-56
2022/05/06 01:17:34;;;;;;;7.45;2.97;;;;;;;8.46;32.56;100519.44;5095903;28;20046;-56
2022/05/06 01:20:01;;;;;;;8.00;4.50;;;;;;;8.48;32.21;100525.47;5107637;28;20040;-57
2022/05/06 01:22:28;;;;;;;7.38;2.78;;;;;;;8.41;32.37;100519.50;5115955;28;20055;-56
2022/05/06 01:24:55;;;;;;;10.85;2.42;;;;;;;8.39;32.56;100522.97;5122804;28;20430;-54
2022/05/06 01:27:28;;;;;;;4.75;2.75;;;;;;;8.39;32.63;100525.56;5096028;28;20055;-55
2022/05/06 01:29:55;;;;;;;7.80;2.65;;;;;;;8.38;32.86;100526.44;5106240;28;20039;-55
2022/05/06 01:32:22;;;;;;;5.75;2.80;;;;;;;8.25;32.61;100512.75;5105202;28;20051;-54
2022/05/06 01:34:50;;;;;;;6.05;2.42;;;;;;;8.30;32.65;100534.31;5103348;28;20070;-54
2022/05/06 01:37:19;;;;;;;6.80;2.40;;;;;;;8.33;32.83;100530.81;5113329;28;20047;-54
2022/05/06 01:39:48;;;;;;;5.55;2.50;;;;;;;8.34;33.04;100540.31;5105759;28;20044;-53
2022/05/06 01:42:18;;;;;;;5.05;2.45;;;;;;;8.29;32.68;100529.13;5085806;28;20043;-53
2022/05/06 01:44:53;;;;;;;6.50;2.50;;;;;;;8.16;33.24;100512.00;5084416;28;20585;-53
2022/05/06 01:47:23;;;;;;;5.57;2.10;;;;;;;8.27;32.93;100542.09;5079954;28;20040;-56
2022/05/06 01:49:53;;;;;;;13.63;2.90;;;;;;;8.15;33.18;100515.47;5077148;28;20423;-51
2022/05/06 01:52:20;;;;;;;5.15;2.30;;;;;;;8.18;32.96;100537.00;5076522;28;20032;-52
2022/05/06 01:54:47;;;;;;;4.93;2.05;;;;;;;8.15;33.20;100539.66;5079411;28;20435;-56
2022/05/06 01:57:14;;;;;;;6.43;1.90;;;;;;;8.13;33.45;100535.34;5101991;28;20088;-54
2022/05/06 01:59:40;;;;;;;10.07;2.22;;;;;;;8.11;33.46;100542.28;5093859;28;20058;-57
2022/05/06 02:02:18;;;;;;;10.07;2.42;;;;;;;8.09;33.21;100535.38;5102211;28;20048;-55
2022/05/06 02:07:32;;;;;;;4.75;1.90;;;;;;;8.14;33.62;100539.66;5098055;28;20522;-54
2022/05/06 02:09:59;;;;;;;4.28;2.05;;;;;;;8.09;33.66;100542.31;5110444;28;20044;-53
2022/05/06 02:12:26;;;;;;;5.30;2.25;;;;;;;7.97;33.20;100521.69;5101353;28;20043;-54
2022/05/06 02:15:08;;;;;;;4.50;2.38;;;;;;;8.07;33.56;100539.72;5061617;28;20031;-56
2022/05/06 02:17:52;;;;;;;4.53;2.28;;;;;;;8.04;33.46;100531.13;5101910;28;20065;-55
2022/05/06 02:20:30;;;;;;;4.40;2.13;;;;;;;8.07;33.90;100534.53;5095341;28;20071;-56
2022/05/06 02:23:22;;;;;;;7.03;2.85;;;;;;;8.08;33.45;100537.97;5092085;28;20097;-55
2022/05/06 02:26:04;;;;;;;4.53;2.00;;;;;;;8.06;33.90;100537.13;5105154;28;20545;-56
2022/05/06 02:28:38;;;;;;;4.78;2.50;;;;;;;8.04;33.75;100539.75;5092865;28;20043;-53
2022/05/06 02:33:52;;;;;;;3.78;1.92;;;;;;;8.02;33.39;100541.50;5076490;28;20051;-57
2022/05/06 02:36:37;;;;;;;7.55;2.17;;;;;;;8.02;34.07;100548.41;5109705;28;20093;-53
2022/05/06 02:39:03;;;;;;;3.72;2.25;;;;;;;8.02;33.97;100551.00;5111418;28;20477;-55
2022/05/06 02:41:32;;;;;;;5.93;1.90;;;;;;;7.93;34.09;100539.00;5108351;28;20040;-52
2022/05/06 02:43:58;;;;;;;10.10;2.45;;;;;;;7.99;34.03;100553.63;5076484;28;20047;-54
2022/05/06 02:46:28;;;;;;;5.93;2.08;;;;;;;7.93;33.73;100533.81;5101866;28;20047;-52
2022/05/06 02:48:56;;;;;;;3.75;2.10;;;;;;;8.04;33.90;100551.84;5092578;28;20575;-55
2022/05/06 02:51:21;;;;;;;5.50;2.13;;;;;;;8.03;33.91;100553.56;5104892;28;20177;-54
2022/05/06 02:53:48;;;;;;;6.82;2.08;;;;;;;8.03;34.00;100565.66;5091616;28;20055;-51
2022/05/06 02:56:18;;;;;;;4.38;2.42;;;;;;;7.94;34.00;100547.63;5092771;28;20055;-51
2022/05/06 02:58:49;;;;;;;13.05;2.78;;;;;;;8.00;34.23;100568.28;5109075;28;20043;-51
2022/05/06 03:01:15;;;;;;;8.07;2.35;;;;;;;8.01;34.36;100563.06;5110129;28;20043;-55
2022/05/06 03:03:44;;;;;;;4.72;2.00;;;;;;;8.03;34.56;100556.16;5071118;28;20119;-52
2022/05/06 03:06:16;;;;;;;5.20;2.15;;;;;;;8.07;34.33;100562.16;5086722;28;20483;-52
2022/05/06 03:08:42;;;;;;;6.30;2.00;;;;;;;8.11;34.02;100570.78;5092120;28;20069;-50
2022/05/06 03:11:09;;;;;;;6.78;2.30;;;;;;;8.11;34.10;100563.88;5091773;28;20158;-53
2022/05/06 03:13:43;;;;;;;5.20;2.28;;;;;;;8.16;34.31;100569.88;5091680;28;20040;-51
2022/05/06 03:16:12;;;;;;;4.90;2.35;;;;;;;8.22;34.12;100568.91;5110526;28;20047;-56
2022/05/06 03:18:38;;;;;;;6.75;2.17;;;;;;;8.27;34.27;100570.56;5074691;28;20042;-57
2022/05/06 03:21:04;;;;;;;7.43;2.40;;;;;;;8.32;34.12;100576.59;5091664;28;20051;-51
2022/05/06 03:23:30;;;;;;;4.20;1.88;;;;;;;8.37;33.99;100572.22;5109206;28;20054;-56
2022/05/06 03:25:56;;;;;;;4.25;2.40;;;;;;;8.33;33.77;100567.97;5096986;28;20048;-56
2022/05/06 03:28:21;;;;;;;5.47;2.28;;;;;;;8.43;34.16;100585.13;5093550;28;20095;-55
2022/05/06 03:30:48;;;;;;;5.43;2.15;;;;;;;8.49;33.92;100579.00;5110461;28;20498;-54
2022/05/06 03:33:36;;;;;;;4.60;2.00;;;;;;;8.55;34.14;100581.53;5110177;28;20057;-54
2022/05/06 03:36:16;;;;;;;4.43;2.00;;;;;;;8.60;33.98;100577.16;5093261;28;20048;-55
2022/05/06 03:38:50;;;;;;;5.22;1.80;;;;;;;8.59;33.80;100578.03;5092820;28;20035;-54
2022/05/06 03:41:17;;;;;;;3.72;1.80;;;;;;;8.62;33.96;100578.00;5092981;28;20050;-53
2022/05/06 03:43:45;;;;;;;5.53;2.20;;;;;;;8.68;33.58;100577.94;5073947;28;20093;-54
2022/05/06 03:46:20;;;;;;;5.38;1.90;;;;;;;8.78;33.57;100589.03;5091253;28;20512;-54
2022/05/06 03:48:46;;;;;;;4.90;2.00;;;;;;;8.70;33.46;100559.75;5091320;28;20130;-57
2022/05/06 03:51:22;;;;;;;7.38;2.40;;;;;;;9.01;33.15;100575.75;5073259;28;20108;-57
2022/05/06 03:53:57;;;;;;;5.95;2.38;;;;;;;9.19;33.43;100578.97;5101254;28;20043;-54
2022/05/06 03:56:25;;;;;;;4.13;2.00;;;;;;;9.45;32.51;100585.50;5110174;28;20039;-55
2022/05/06 03:58:52;;;;;;;6.05;2.53;;;;;;;9.67;32.42;100592.06;5079632;28;20047;-54
2022/05/06 04:01:19;;;;;;;8.68;2.75;;;;;;;9.81;32.15;100584.91;5073511;28;20036;-56
2022/05/06 04:03:50;;;;;;;4.65;2.00;;;;;;;9.97;31.93;100582.91;5096029;28;20051;-54
2022/05/06 04:06:18;;;;;;;5.70;2.33;;;;;;;10.15;31.27;100582.59;5057012;28;20538;-55
2022/05/06 04:08:50;;;;;;;5.30;2.40;;;;;;;10.27;31.57;100581.50;5075742;28;20546;-54
2022/05/06 04:11:19;;;;;;;9.68;2.40;;;;;;;10.34;31.53;100583.13;5089764;28;20047;-55
2022/05/06 04:13:46;;;;;;;8.00;2.42;;;;;;;10.60;31.11;100576.53;5096282;28;20047;-56
2022/05/06 04:16:14;;;;;;;9.05;2.85;;;;;;;10.76;30.72;100587.47;5105682;28;20418;-54
2022/05/06 04:18:40;;;;;;;4.93;2.40;;;;;;;10.80;30.23;100598.66;5087437;28;20035;-57
2022/05/06 04:23:50;;;;;;;4.13;2.10;;;;;;;11.06;30.54;100593.78;5078849;28;20044;-52
2022/05/06 04:26:17;;;;;;;4.60;2.30;;;;;;;11.05;29.93;100581.66;5102027;28;20040;-53
2022/05/06 04:28:53;;;;;;;5.75;2.30;;;;;;;11.15;30.47;100593.56;5094319;28;20047;-51
2022/05/06 04:31:18;;;;;;;5.18;2.35;;;;;;;11.25;30.46;100589.88;5087593;28;20040;-54
2022/05/06 04:33:46;;;;;;;11.40;2.67;;;;;;;11.30;30.13;100592.38;5094181;28;20530;-53
2022/05/06 04:36:26;;;;;;;4.75;2.28;;;;;;;11.43;30.22;100594.66;5089314;28;20093;-54
2022/05/06 04:38:57;;;;;;;6.40;2.60;;;;;;;11.60;30.30;100596.88;5086326;28;20074;-55
2022/05/06 04:41:24;;;;;;;6.43;2.28;;;;;;;11.72;29.75;100601.75;5076430;28;20050;-55
2022/05/06 04:43:51;;;;;;;6.35;2.35;;;;;;;11.78;29.76;100599.06;5100582;28;20068;-54
2022/05/06 04:46:19;;;;;;;7.03;2.45;;;;;;;11.83;29.62;100597.19;5109780;28;20043;-54
2022/05/06 04:48:46;;;;;;;5.13;2.60;;;;;;;12.05;29.41;100591.44;5082597;28;20040;-54
2022/05/06 04:51:15;;;;;;;9.50;3.70;;;;;;;12.30;29.75;100598.56;5089236;28;20055;-51
2022/05/06 04:53:40;;;;;;;6.40;2.70;;;;;;;12.39;29.14;100604.44;5089166;28;20423;-57
2022/05/06 04:56:06;;;;;;;6.63;2.92;;;;;;;12.24;28.91;100603.97;5072331;28;20542;-53
2022/05/06 04:58:38;;;;;;;10.45;2.67;;;;;;;12.26;29.50;100609.13;5088267;28;20047;-50
2022/05/06 05:01:09;;;;;;;9.43;2.72;;;;;;;12.42;28.89;100601.75;5090187;28;20035;-53
2022/05/06 05:03:36;;;;;;;5.57;2.78;;;;;;;12.37;29.20;100612.31;5091508;28;20140;-52
2022/05/06 05:06:03;;;;;;;6.38;2.75;;;;;;;12.37;29.55;100607.09;5090031;28;20054;-52
2022/05/06 05:08:29;;;;;;;9.07;3.00;;;;;;;12.56;29.18;100620.50;5092780;28;20050;-53
2022/05/06 05:11:02;;;;;;;5.75;2.50;;;;;;;12.67;28.78;100608.84;5102445;28;20052;-56
2022/05/06 05:13:39;;;;;;;5.18;2.47;;;;;;;12.45;28.97;100594.72;5091098;28;20040;-57
2022/05/06 05:16:07;;;;;;;10.48;2.90;;;;;;;12.58;29.09;100609.13;5075606;28;20103;-57
2022/05/06 05:18:34;;;;;;;5.15;2.35;;;;;;;12.59;28.90;100608.22;5092587;28;20036;-51
2022/05/06 05:21:01;;;;;;;5.07;2.50;;;;;;;12.77;29.14;100614.66;5112794;28;20043;-54
2022/05/06 05:23:29;;;;;;;6.22;2.38;;;;;;;12.84;28.94;100615.34;5098612;28;20105;-58
2022/05/06 05:25:55;;;;;;;9.65;2.35;;;;;;;12.81;28.49;100624.13;5087333;28;20134;-61
2022/05/06 05:28:21;;;;;;;6.88;2.67;;;;;;;12.63;28.93;100617.66;5075548;28;20035;-57
2022/05/06 05:30:47;;;;;;;7.70;2.50;;;;;;;12.68;28.63;100615.78;5092340;28;20101;-55
2022/05/06 05:33:14;;;;;;;6.53;2.63;;;;;;;12.71;28.59;100617.47;5094440;28;20050;-58
2022/05/06 05:35:47;;;;;;;6.32;2.50;;;;;;;12.81;28.67;100605.88;5076845;28;20085;-55
2022/05/06 05:38:14;;;;;;;11.63;2.65;;;;;;;12.97;28.74;100617.56;5092378;28;20065;-55
2022/05/06 05:40:41;;;;;;;5.03;2.38;;;;;;;12.87;28.13;100604.84;5075500;28;20090;-54
2022/05/06 05:48:19;;;;;;;6.10;2.42;;;;;;;13.17;28.22;100618.75;5098740;28;20036;-52
2022/05/06 05:48:41;;;;;;;5.80;3.03;;;;;;;13.47;27.85;100608.22;5093261;28;20040;-52
2022/05/06 05:51:07;;;;;;;10.30;2.95;;;;;;;13.63;27.73;100618.19;5091770;28;20043;-56
2022/05/06 05:53:42;;;;;;;6.53;2.75;;;;;;;13.60;27.26;100626.16;5082548;28;20032;-50
2022/05/06 05:56:08;;;;;;;8.15;2.40;;;;;;;13.56;27.46;100609.69;5076258;28;20055;-53
2022/05/06 05:58:34;;;;;;;6.32;3.10;;;;;;;13.66;27.13;100621.56;5098227;28;20043;-55
2022/05/06 06:01:04;;;;;;;6.53;3.13;;;;;;;13.84;27.12;100620.13;5112571;28;20430;-56
2022/05/06 06:03:34;;;;;;;5.53;2.90;;;;;;;13.94;26.91;100627.59;5100467;28;20051;-55
2022/05/06 06:06:02;;;;;;;4.80;2.90;;;;;;;14.08;26.48;100616.69;5091745;28;20062;-57
2022/05/06 06:08:28;;;;;;;7.18;2.72;;;;;;;14.32;26.40;100621.09;5095402;28;20281;-53
2022/05/06 06:11:01;;;;;;;6.53;3.08;;;;;;;14.69;25.90;100623.28;5091625;28;20067;-56
2022/05/06 06:13:32;;;;;;;5.35;2.90;;;;;;;14.38;25.98;100592.13;5085655;28;20092;-52
2022/05/06 06:16:00;;;;;;;7.05;3.08;;;;;;;14.66;25.85;100615.53;5112272;28;20055;-52
2022/05/06 06:18:27;;;;;;;5.05;2.85;;;;;;;14.75;25.68;100620.47;5106017;28;20063;-52
2022/05/06 06:20:57;;;;;;;15.25;3.33;;;;;;;15.13;25.38;100624.25;5102372;28;20051;-53
2022/05/06 06:23:24;;;;;;;4.88;2.85;;;;;;;15.49;24.93;100621.13;5095238;28;20048;-50
2022/05/06 06:25:52;;;;;;;6.88;3.05;;;;;;;15.84;24.50;100609.25;5092682;28;20043;-56
2022/05/06 06:28:18;;;;;;;4.43;2.75;;;;;;;16.23;23.55;100614.59;5106167;28;20491;-56
2022/05/06 06:30:45;;;;;;;5.88;3.20;;;;;;;16.46;23.26;100620.56;5095080;28;20040;-54
2022/05/06 06:33:12;;;;;;;7.97;3.13;;;;;;;16.56;23.24;100605.25;5078103;28;20043;-51
2022/05/06 06:35:39;;;;;;;6.95;3.05;;;;;;;16.59;23.37;100628.78;5104853;28;20043;-52
2022/05/06 06:38:06;;;;;;;9.35;3.25;;;;;;;16.53;22.96;100616.75;5104713;28;20112;-51
2022/05/06 06:40:36;;;;;;;7.10;2.90;;;;;;;16.53;23.11;100603.63;5095706;28;20050;-53
2022/05/06 06:43:03;;;;;;;7.60;3.10;;;;;;;17.04;22.40;100614.50;5102938;28;20035;-51
2022/05/06 06:45:46;;;;;;;6.25;2.97;;;;;;;16.82;22.70;100614.63;5107311;28;20040;-55
2022/05/06 06:48:25;;;;;;;6.95;2.90;;;;;;;16.65;22.80;100614.53;5093726;28;20488;-56
2022/05/06 06:51:02;;;;;;;6.45;3.30;;;;;;;17.18;22.52;100620.81;5076445;28;20044;-51
2022/05/06 06:53:30;;;;;;;4.85;2.90;;;;;;;17.29;22.09;100621.19;5100039;28;20039;-50
2022/05/06 06:55:56;;;;;;;5.57;2.95;;;;;;;17.57;21.77;100612.84;5099434;28;20400;-56
2022/05/06 06:58:22;;;;;;;5.13;3.42;;;;;;;17.96;21.62;100617.94;5090111;28;20077;-56
2022/05/06 07:00:48;;;;;;;6.28;3.33;;;;;;;18.32;20.92;100620.50;5090073;28;20044;-57
2022/05/06 07:03:14;;;;;;;8.02;3.00;;;;;;;18.75;20.86;100621.78;5093280;28;20051;-57
2022/05/06 07:13:55;;;;;;;7.97;3.78;;;;;;;19.41;19.78;100622.56;5096272;28;20085;-55
2022/05/06 07:16:21;;;;;;;7.55;3.20;;;;;;;20.18;19.46;100601.38;5091679;28;20122;-55
2022/05/06 07:18:47;;;;;;;16.17;4.30;;;;;;;21.68;18.61;100614.91;5096422;28;20039;-56
2022/05/06 07:21:13;;;;;;;9.60;3.85;;;;;;;22.81;17.56;100613.44;5111869;28;20077;-57
2022/05/06 07:23:39;;;;;;;8.65;4.05;;;;;;;22.87;17.12;100612.19;5106136;28;20044;-53
2022/05/06 07:26:05;;;;;;;10.88;4.30;;;;;;;23.64;16.74;100602.09;5092586;28;20040;-55
2022/05/06 07:28:30;;;;;;;10.43;4.47;;;;;;;24.82;15.92;100604.56;5073362;28;20051;-55
2022/05/06 07:30:56;;;;;;;11.52;4.60;;;;;;;26.42;14.30;100611.78;5097421;28;20045;-60
2022/05/06 07:33:22;;;;;;;22.70;4.63;;;;;;;27.91;13.93;100605.66;5109731;28;20126;-60
2022/05/06 07:35:48;;;;;;;6.78;3.95;;;;;;;28.68;12.53;100605.56;5098760;28;20031;-59
2022/05/06 07:38:13;;;;;;;6.75;4.13;;;;;;;28.82;12.17;100605.09;5073046;28;20047;-61
2022/05/06 07:40:54;;;;;;;8.75;4.25;;;;;;;28.09;12.74;100601.28;5089579;28;20063;-60
2022/05/06 07:43:20;;;;;;;7.53;6.28;;;;;;;29.05;12.08;100604.56;5088233;28;20059;-58
2022/05/06 07:45:46;;;;;;;10.77;4.57;;;;;;;29.60;11.67;100606.38;5099084;28;20101;-61
2022/05/06 07:48:13;;;;;;;14.95;5.03;;;;;;;29.82;11.99;100612.13;5089215;28;20040;-59
2022/05/06 07:50:44;;;;;;;8.02;4.57;;;;;;;28.90;11.91;100610.56;5109408;28;20422;-58
2022/05/06 07:53:11;;;;;;;11.45;4.70;;;;;;;29.55;11.66;100609.53;5094798;28;20039;-61
2022/05/06 07:55:37;;;;;;;10.88;4.40;;;;;;;29.59;11.33;100602.84;5098901;28;20086;-62
2022/05/06 07:58:04;;;;;;;6.15;4.60;;;;;;;29.23;11.64;100603.78;5056311;28;20071;-60
2022/05/06 08:00:31;;;;;;;7.13;4.05;;;;;;;28.86;11.61;100595.78;5069660;28;20047;-61
2022/05/06 08:05:43;;;;;;;6.22;4.10;;;;;;;28.99;11.53;100599.81;5086536;28;20115;-59
2022/05/06 08:08:09;;;;;;;7.18;4.43;;;;;;;29.47;11.13;100596.03;5088263;28;20040;-51
2022/05/06 08:10:35;;;;;;;10.45;4.63;;;;;;;30.68;10.78;100607.78;5089089;28;20464;-53
2022/05/06 08:13:01;;;;;;;5.78;4.82;;;;;;;30.38;10.66;100602.88;5090892;28;20036;-58
2022/05/06 08:15:28;;;;;;;7.47;4.50;;;;;;;30.48;10.75;100595.59;5090694;28;20088;-55
2022/05/06 08:17:53;;;;;;;6.15;4.18;;;;;;;30.53;10.88;100595.09;5090050;28;20121;-51
2022/05/06 08:20:19;;;;;;;7.00;3.80;;;;;;;29.72;10.79;100589.09;5090349;28;20521;-55
2022/05/06 08:22:45;;;;;;;12.13;4.40;;;;;;;30.21;10.95;100593.88;5089839;28;20067;-56
2022/05/06 08:25:11;;;;;;;8.02;4.28;;;;;;;32.17;10.42;100588.22;5088757;28;20040;-55
2022/05/06 08:27:37;;;;;;;7.15;4.50;;;;;;;33.65;9.80;100589.19;5107433;28;20043;-54
2022/05/06 08:30:08;;;;;;;8.15;4.72;;;;;;;34.35;8.83;100587.09;5089668;28;20094;-56
2022/05/06 08:32:35;;;;;;;6.03;4.45;;;;;;;35.03;8.89;100580.59;5089318;28;20396;-58
2022/05/06 08:35:00;;;;;;;6.03;4.40;;;;;;;35.92;8.52;100590.13;5089075;28;20044;-58
2022/05/06 08:37:26;;;;;;;9.48;3.83;;;;;;;36.10;7.68;100576.97;5093753;28;20429;-55
2022/05/06 08:39:52;;;;;;;5.47;4.00;;;;;;;35.89;7.76;100585.13;5110725;28;20051;-56
2022/05/06 08:42:20;;;;;;;6.30;4.13;;;;;;;35.74;7.81;100573.53;5110782;28;20046;-53
2022/05/06 08:53:05;;;;;;;8.65;4.65;;;;;;;36.94;8.07;100563.34;5105438;28;20130;-42
2022/05/06 08:55:34;;;;;;;9.15;4.57;;;;;;;37.45;7.73;100560.19;5077740;28;20503;-42
2022/05/06 08:57:59;;;;;;;7.18;4.40;;;;;;;36.35;7.73;100565.72;5090697;28;20112;-42
2022/05/06 09:00:26;;;;;;;10.65;4.35;;;;;;;33.54;8.98;100551.84;5090753;28;20499;-43
2022/05/06 09:02:52;;;;;;;6.38;4.45;;;;;;;32.84;9.24;100543.81;5089194;28;20087;-42
2022/05/06 09:05:20;;;;;;;10.63;4.88;;;;;;;34.39;8.94;100555.16;5093451;28;20039;-41
2022/05/06 09:07:59;;;;;;;5.93;4.90;;;;;;;35.84;8.12;100560.50;5093367;28;20067;-41
2022/05/06 09:10:26;;;;;;;6.60;5.20;;;;;;;35.92;8.45;100557.66;5088324;28;20032;-44
2022/05/06 09:12:56;;;;;;;6.57;4.88;;;;;;;35.99;8.29;100557.72;5073973;28;20036;-42
2022/05/06 09:18:08;;;;;;;7.32;4.55;;;;;;;33.77;8.89;100546.47;5091423;28;20047;-41
2022/05/06 09:20:35;;;;;;;5.03;4.00;;;;;;;31.42;10.04;100545.28;5088137;28;20069;-43
2022/05/06 09:23:20;;;;;;;7.95;4.35;;;;;;;29.17;10.93;100540.91;5088554;28;20110;-42
2022/05/06 09:25:49;;;;;;;6.65;3.85;;;;;;;28.24;11.41;100525.00;5092218;28;20127;-42
2022/05/06 09:28:25;;;;;;;5.25;4.38;;;;;;;28.24;11.63;100546.41;5072209;28;20048;-43
2022/05/06 09:31:06;;;;;;;4.90;3.85;;;;;;;27.75;11.69;100547.41;5088077;28;20062;-42
2022/05/06 09:33:35;;;;;;;9.55;4.35;;;;;;;26.05;12.96;100533.22;5093649;28;20393;-41
2022/05/06 09:36:23;;;;;;;6.93;4.07;;;;;;;25.14;13.29;100535.50;5083440;28;20051;-42
2022/05/06 09:39:05;;;;;;;;;;;;;;;24.75;13.66;100520.94;5087103;28;20426;-40
2022/05/06 09:41:32;;;;;;;9.57;4.10;;;;;;;24.63;13.74;100530.72;5093266;28;19954;-41
2022/05/06 09:44:05;;;;;;;4.70;3.63;;;;;;;24.24;14.07;100520.53;5093757;28;20059;-40
2022/05/06 09:46:31;;;;;;;4.90;3.60;;;;;;;23.86;14.07;100521.66;5081906;28;20427;-41
2022/05/06 09:48:59;;;;;;;5.07;3.75;;;;;;;23.81;14.18;100523.84;5092114;28;20127;-41
2022/05/06 09:51:29;;;;;;;6.10;3.50;;;;;;;23.22;14.47;100525.59;5096959;28;20043;-41
2022/05/06 09:53:56;;;;;;;6.53;3.20;;;;;;;22.85;14.76;100513.31;5092639;28;20036;-41
2022/05/06 09:56:22;;;;;;;7.38;3.35;;;;;;;22.46;14.93;100504.53;5095739;28;20040;-42
2022/05/06 09:58:52;;;;;;;10.18;3.47;;;;;;;22.43;15.27;100525.13;5076140;28;20046;-43
2022/05/06 10:01:18;;;;;;;5.68;3.35;;;;;;;22.36;15.13;100530.00;5101862;28;20631;-41
2022/05/06 10:03:44;;;;;;;7.75;3.47;;;;;;;22.11;15.37;100514.09;5101241;28;20438;-41
2022/05/06 10:06:10;;;;;;;6.55;3.40;;;;;;;22.29;15.19;100510.19;5101208;28;20051;-42
2022/05/06 10:08:39;;;;;;;5.60;3.20;;;;;;;22.44;15.23;100503.81;5088247;27;20033;-40
2022/05/06 10:11:12;;;;;;;4.00;3.00;;;;;;;23.69;14.47;100510.63;5093564;28;20036;-41
2022/05/06 10:13:45;;;;;;;5.30;3.50;;;;;;;23.87;14.42;100506.53;5097140;28;20057;-43
2022/05/06 10:16:11;;;;;;;5.55;3.33;;;;;;;24.82;13.96;100479.53;5081681;28;20104;-41
2022/05/06 10:18:38;;;;;;;7.15;4.38;;;;;;;25.70;13.12;100505.06;5084912;28;20040;-41
2022/05/06 10:21:06;;;;;;;7.03;4.15;;;;;;;26.78;12.88;100516.19;5077978;28;20047;-41
2022/05/06 10:23:53;;;;;;;6.60;4.45;;;;;;;27.37;12.09;100502.84;5068263;28;20051;-40
2022/05/06 10:26:34;;;;;;;7.82;3.72;;;;;;;26.48;12.38;100503.72;5099708;28;20131;-42
2022/05/06 10:34:30;;;;;;;5.22;3.70;;;;;;;23.37;14.40;100503.22;5091883;28;20036;-41
2022/05/06 10:36:58;;;;;;;7.10;3.92;;;;;;;22.86;14.74;100505.25;5073538;28;20085;-40
2022/05/06 10:39:37;;;;;;;5.78;3.05;;;;;;;23.32;14.63;100492.09;5074913;28;20041;-41
2022/05/06 10:42:10;;;;;;;5.40;3.60;;;;;;;25.65;13.33;100493.94;5074054;28;20535;-42
2022/05/06 10:44:42;;;;;;;5.70;3.95;;;;;;;27.29;12.32;100495.50;5099230;28;20042;-40
2022/05/06 10:49:59;;;;;;;7.65;3.67;;;;;;;23.37;14.37;100495.25;5093984;28;20036;-40
2022/05/06 10:52:43;;;;;;;5.13;3.05;;;;;;;23.32;14.55;100496.56;5107787;28;20522;-41
2022/05/06 10:55:12;;;;;;;4.68;3.05;;;;;;;24.05;14.12;100503.34;5104125;28;20032;-40
2022/05/06 10:57:48;;;;;;;;;;;;;;;23.45;14.56;100494.69;5082909;28;20431;-40
2022/05/06 11:00:14;;;;;;;10.70;3.50;;;;;;;23.45;14.52;100487.59;5089396;28;19920;-41
2022/05/06 11:02:41;;;;;;;6.18;3.40;;;;;;;23.67;14.50;100462.94;5091525;28;20048;-42
2022/05/06 11:05:11;;;;;;;6.40;3.10;;;;;;;23.41;14.65;100480.78;5091655;28;20503;-43
2022/05/06 11:07:38;;;;;;;4.93;3.08;;;;;;;23.89;14.25;100475.41;5056140;28;20043;-40
2022/05/06 11:10:11;;;;;;;4.82;2.97;;;;;;;24.43;14.04;100473.81;5093636;28;20532;-41
2022/05/06 11:12:46;;;;;;;6.43;3.35;;;;;;;24.51;13.92;100486.47;5101393;28;20126;-40
2022/05/06 11:15:20;;;;;;;5.75;3.40;;;;;;;23.51;14.42;100467.72;5101089;28;20039;-42
2022/05/06 11:17:46;;;;;;;7.30;3.97;;;;;;;25.35;13.45;100467.19;5094072;28;20036;-44
2022/05/06 11:20:29;;;;;;;4.22;3.00;;;;;;;27.38;12.23;100459.09;5077529;28;20063;-42
2022/05/06 11:23:03;;;;;;;7.65;3.83;;;;;;;29.15;11.57;100472.44;5091626;28;20052;-42
2022/05/06 11:25:33;;;;;;;4.88;2.97;;;;;;;28.77;11.31;100449.44;5077095;28;20569;-43
2022/05/06 11:28:04;;;;;;;4.82;3.65;;;;;;;29.40;10.90;100460.97;5068570;28;20387;-41
2022/05/06 11:30:31;;;;;;;6.75;4.07;;;;;;;28.33;11.47;100457.25;5087475;28;20056;-41
2022/05/06 11:33:02;;;;;;;5.37;3.63;;;;;;;27.95;11.89;100458.19;5092716;28;20047;-41
2022/05/06 11:35:35;;;;;;;6.30;3.90;;;;;;;28.97;11.38;100454.53;5100292;28;20047;-41
2022/05/06 11:38:03;;;;;;;4.22;3.83;;;;;;;28.83;11.13;100449.69;5110160;28;20042;-41
2022/05/06 11:42:57;;;;;;;5.25;3.60;;;;;;;26.14;12.52;100444.44;5106875;28;20045;-41
2022/05/06 11:48:09;;;;;;;5.57;4.10;;;;;;;25.99;12.88;100448.44;5089570;28;20074;-43
2022/05/06 11:50:36;;;;;;;7.40;4.00;;;;;;;26.44;12.81;100452.47;5087518;28;20060;-41
2022/05/06 11:53:09;;;;;;;5.18;3.85;;;;;;;26.27;12.86;100450.44;5076894;28;20447;-38
2022/05/06 11:55:36;;;;;;;8.65;4.43;;;;;;;25.98;13.06;100436.94;5090392;28;20504;-40
2022/05/06 11:58:07;;;;;;;6.07;3.58;;;;;;;24.36;13.87;100435.38;5080160;28;20047;-40
2022/05/06 12:00:33;;;;;;;8.43;3.80;;;;;;;23.57;14.65;100441.56;5085486;28;20064;-41
2022/05/06 12:03:04;;;;;;;5.32;4.13;;;;;;;23.93;14.50;100437.03;5093333;28;20119;-42
2022/05/06 12:05:31;;;;;;;10.05;3.97;;;;;;;25.90;13.36;100428.78;5098120;28;20043;-42
2022/05/06 12:07:56;;;;;;;6.15;3.80;;;;;;;26.86;13.06;100434.44;5099393;28;20059;-41
2022/05/06 12:10:27;;;;;;;5.35;3.22;;;;;;;25.33;13.62;100425.72;5095338;28;20499;-41
2022/05/06 12:12:52;;;;;;;5.68;3.00;;;;;;;23.19;14.92;100439.09;5090815;28;20093;-40
2022/05/06 12:15:18;;;;;;;5.00;3.50;;;;;;;22.42;15.63;100422.72;5089214;28;20040;-39
2022/05/06 12:17:44;;;;;;;5.82;3.95;;;;;;;23.45;14.85;100413.28;5094057;28;20036;-41
2022/05/06 12:20:31;;;;;;;5.82;3.97;;;;;;;25.02;13.80;100420.25;5099879;28;20078;-42
2022/05/06 12:23:00;;;;;;;6.40;3.70;;;;;;;24.40;14.09;100412.88;5107223;28;20056;-41
2022/05/06 12:25:26;;;;;;;;;;;;;;;23.61;14.62;100408.47;5111621;28;20062;-41
2022/05/06 12:28:08;;;;;;;6.72;4.57;;;;;;;24.07;14.64;100405.75;5094018;28;20280;-42
2022/05/06 12:30:38;;;;;;;6.07;4.05;;;;;;;25.65;13.56;100408.72;5099692;28;20047;-39
2022/05/06 12:33:05;;;;;;;10.52;4.03;;;;;;;26.49;13.23;100401.38;5092240;28;20061;-39
2022/05/06 12:35:31;;;;;;;4.68;3.83;;;;;;;26.83;12.87;100400.03;5102724;28;20040;-40
2022/05/06 12:37:59;;;;;;;4.88;3.70;;;;;;;27.21;12.57;100393.91;5101036;28;20065;-40
2022/05/06 12:40:33;;;;;;;5.43;3.97;;;;;;;27.04;12.40;100383.09;5096257;28;20032;-40
2022/05/06 12:43:02;;;;;;;4.18;3.78;;;;;;;27.32;12.29;100398.25;5092620;28;20043;-40
2022/05/06 12:45:28;;;;;;;6.70;3.72;;;;;;;27.54;12.29;100400.63;5094501;28;20128;-39
2022/05/06 12:50:39;;;;;;;6.05;3.75;;;;;;;27.57;12.24;100391.50;5096735;28;20084;-40
2022/05/06 12:53:05;;;;;;;7.53;4.38;;;;;;;27.45;12.27;100382.75;5099971;28;20020;-40
2022/05/06 12:55:30;;;;;;;12.95;4.13;;;;;;;27.90;11.79;100398.97;5099067;28;20517;-42